createdAt,value
2023-03-13T00:07:26.588Z,61.85
2023-03-13T00:17:30.455Z,62.38
2023-03-13T00:27:34.850Z,62.95
2023-03-13T00:37:37.949Z,63.69
2023-03-13T00:47:41.283Z,65.20
2023-03-13T00:57:45.584Z,66.11
2023-03-13T01:07:51.227Z,66.45
2023-03-13T01:17:54.415Z,66.80
2023-03-13T01:27:58.768Z,67.29
2023-03-13T01:38:01.967Z,67.63
2023-03-13T01:48:06.672Z,67.76
2023-03-13T01:58:29.895Z,68.03
2023-03-13T02:08:42.923Z,68.09
2023-03-13T02:18:46.949Z,68.50
2023-03-13T02:28:50.442Z,68.88
2023-03-13T02:38:58.559Z,68.78
2023-03-13T02:49:19.859Z,68.85
2023-03-13T02:59:24.442Z,69.12
2023-03-13T03:09:27.884Z,69.33
2023-03-13T03:19:35.122Z,69.46
2023-03-13T03:29:38.478Z,69.54
2023-03-13T03:39:41.932Z,69.89
2023-03-13T03:49:45.625Z,70.46
2023-03-13T03:59:49.378Z,70.60
2023-03-13T04:09:52.681Z,70.63
2023-03-13T04:20:14.474Z,70.83
2023-03-13T04:30:18.758Z,71.07
2023-03-13T04:40:39.611Z,71.40
2023-03-13T04:51:15.140Z,71.56
2023-03-13T05:01:26.515Z,71.90
2023-03-13T05:11:35.926Z,71.86
2023-03-13T05:21:58.127Z,72.18
2023-03-13T05:32:24.245Z,72.32
2023-03-13T05:42:31.317Z,72.37
2023-03-13T05:52:46.760Z,72.32
2023-03-13T06:03:22.333Z,72.16
2023-03-13T06:13:29.947Z,72.02
2023-03-13T06:23:37.982Z,72.44
2023-03-13T06:33:41.079Z,72.52
2023-03-13T06:43:44.368Z,72.64
2023-03-13T06:53:47.863Z,72.86
2023-03-13T07:03:52.004Z,71.96
2023-03-13T07:14:06.577Z,70.40
2023-03-13T07:24:18.458Z,67.90
2023-03-13T07:34:23.078Z,66.13
2023-03-13T07:44:26.352Z,65.43
2023-03-13T07:54:29.499Z,64.82
2023-03-13T08:04:32.917Z,63.72
2023-03-13T08:14:37.018Z,64.21
2023-03-13T08:24:40.300Z,63.65
2023-03-13T08:34:44.473Z,63.93
2023-03-13T08:44:47.675Z,63.50
2023-03-13T08:54:50.805Z,63.94
2023-03-13T09:04:53.936Z,63.31
2023-03-13T09:14:57.019Z,63.75
2023-03-13T09:25:00.170Z,63.12
2023-03-13T09:35:03.375Z,61.79
2023-03-13T09:45:12.552Z,60.92
2023-03-13T09:55:31.290Z,59.85
2023-03-13T10:05:35.035Z,59.36
2023-03-13T10:16:19.298Z,58.52
2023-03-13T10:26:31.340Z,57.75
2023-03-13T10:36:43.856Z,56.33
2023-03-13T10:46:49.423Z,55.62
2023-03-13T10:57:08.500Z,54.87
2023-03-13T11:07:20.416Z,54.30
2023-03-13T11:17:37.632Z,53.73
2023-03-13T11:27:57.244Z,52.69
2023-03-13T11:38:08.416Z,51.71
2023-03-13T11:48:36.249Z,50.77
2023-03-13T11:59:04.188Z,50.38
2023-03-13T12:09:28.208Z,50.01
2023-03-13T12:19:41.407Z,49.37
2023-03-13T12:30:02.220Z,48.66
2023-03-13T12:40:45.496Z,47.95
2023-03-13T12:51:02.864Z,46.60
2023-03-13T13:01:08.425Z,46.80
2023-03-13T13:11:33.670Z,46.94
2023-03-13T13:21:38.304Z,47.36
2023-03-13T13:31:47.976Z,47.51
2023-03-13T13:41:51.211Z,47.30
2023-03-13T13:52:18.436Z,46.88
2023-03-13T14:02:30.802Z,47.62
2023-03-13T14:12:38.900Z,48.67
2023-03-13T14:22:47.290Z,50.11
2023-03-13T14:32:51.931Z,52.42
2023-03-13T14:42:57.626Z,54.56
2023-03-13T14:53:18.318Z,56.02
2023-03-13T15:03:30.030Z,55.94
2023-03-13T15:13:37.599Z,56.21
2023-03-13T15:23:42.518Z,56.58
2023-03-13T15:33:45.681Z,57.29
2023-03-13T15:43:52.855Z,58.82
2023-03-13T15:53:56.151Z,60.61
2023-03-13T16:04:00.840Z,61.58
2023-03-13T16:14:04.124Z,61.81
2023-03-13T16:24:08.291Z,62.21
2023-03-13T16:34:11.578Z,62.73
2023-03-13T16:44:14.630Z,63.02
2023-03-13T16:54:18.764Z,62.98
2023-03-13T17:04:22.028Z,62.73
2023-03-13T17:14:25.195Z,61.95
2023-03-13T17:24:29.264Z,61.54
2023-03-13T17:34:33.668Z,60.95
2023-03-13T17:44:39.448Z,60.79
2023-03-13T17:54:43.787Z,60.60
2023-03-13T18:04:48.307Z,60.09
2023-03-13T18:14:51.372Z,59.61
2023-03-13T18:24:54.439Z,58.87
2023-03-13T18:34:57.652Z,57.72
2023-03-13T18:45:01.903Z,56.71
2023-03-13T18:55:05.451Z,56.27
2023-03-13T19:05:08.960Z,55.57
2023-03-13T19:15:14.798Z,55.34
2023-03-13T19:25:18.159Z,54.77
2023-03-13T19:35:22.401Z,54.37
2023-03-13T19:45:27.565Z,54.06
2023-03-13T19:55:31.552Z,53.11
2023-03-13T20:05:34.771Z,52.29
2023-03-13T20:15:38.137Z,51.72
2023-03-13T20:25:41.785Z,51.61
2023-03-13T20:35:45.259Z,50.52
2023-03-13T20:45:49.082Z,49.81
2023-03-13T20:55:54.536Z,49.62
2023-03-13T21:06:00.673Z,50.65
2023-03-13T21:16:03.999Z,51.53
2023-03-13T21:26:07.471Z,51.08
2023-03-13T21:36:12.561Z,50.86
2023-03-13T21:46:18.702Z,50.33
2023-03-13T21:56:22.500Z,50.13
2023-03-13T22:06:26.656Z,50.44
2023-03-13T22:16:30.662Z,51.46
2023-03-13T22:26:34.678Z,52.81
2023-03-13T22:36:38.249Z,55.11
2023-03-13T22:46:41.375Z,55.74
2023-03-13T22:56:44.500Z,55.18
2023-03-13T23:06:47.661Z,55.46
2023-03-13T23:16:50.780Z,55.85
2023-03-13T23:26:53.863Z,55.61
2023-03-13T23:36:58.401Z,55.51
2023-03-13T23:47:01.605Z,55.74
2023-03-13T23:57:06.362Z,56.42
